Miami, Florida
Traffic Map
Current Weather Conditions
Miami, Florida
Broken Clouds
Broken Clouds
82°
Feels Like: 87°
Wind Chill: 82° Ceiling: 1900
Heat Index: 87° Visibility: 10mi
Dew Point: 73° Wind: 14mph
Humidity: 74% Direction: 140° (SE)
Pressure: 29.95in Gusts: 0mph
Raw Report DataKMIA 231853Z 14012KT 10SM BKN019 BKN029 28/23 A2995 RMK AO2 SLP142 T02780228
Traffic Incident Summary
Active as of:
Severity:
Category:
InformationThere was an issue retrieving the traffic information for this location. Please try a different location or try again shortly.
Advertisements
Track Severe Weather on mobile